Time;durP1;ratioP1;P1;durP2;ratioP2;P2;SDS_P1;SDS_P2;PMS_P1;PMS_P2;Temp;Humidity;BMP_temperature;BMP_pressure;BME280_temperature;BME280_humidity;BME280_pressure;Samples;Min_cycle;Max_cycle;Signal;HPM_P1;HPM_P2
2023/06/06 00:00:37;;;;;;;4.15;3.25;;;17.90;55.20;;;;;;5056672;28;20419;-68
2023/06/06 00:03:04;;;;;;;5.40;3.55;;;17.90;55.40;;;;;;5047597;28;20566;-68
2023/06/06 00:05:31;;;;;;;3.50;3.20;;;17.90;54.90;;;;;;5046918;28;20474;-69
2023/06/06 00:07:58;;;;;;;4.50;3.30;;;17.90;55.30;;;;;;5050516;28;20521;-68
2023/06/06 00:10:24;;;;;;;3.70;3.30;;;17.90;56.10;;;;;;5057102;28;20420;-68
2023/06/06 00:12:53;;;;;;;3.70;3.00;;;17.80;55.60;;;;;;5062969;28;20423;-67
2023/06/06 00:15:20;;;;;;;3.80;3.15;;;17.80;56.30;;;;;;5062946;28;20805;-68
2023/06/06 00:17:48;;;;;;;3.67;3.20;;;17.70;55.50;;;;;;5057430;28;20442;-68
2023/06/06 00:20:16;;;;;;;5.00;3.13;;;17.70;55.50;;;;;;5054265;28;20482;-68
2023/06/06 00:22:44;;;;;;;3.50;2.85;;;17.60;55.90;;;;;;5058708;28;20432;-68
2023/06/06 00:25:11;;;;;;;4.70;3.30;;;17.50;56.70;;;;;;5060079;28;20419;-67
2023/06/06 00:27:38;;;;;;;4.65;3.30;;;17.50;56.90;;;;;;5051767;28;20870;-68
2023/06/06 00:30:07;;;;;;;3.58;3.08;;;17.50;56.70;;;;;;5054056;28;20431;-68
2023/06/06 00:32:34;;;;;;;4.10;3.70;;;17.50;56.90;;;;;;5050305;28;20510;-68
2023/06/06 00:35:01;;;;;;;3.95;3.38;;;17.50;56.50;;;;;;5063790;28;20817;-68
2023/06/06 00:37:28;;;;;;;3.35;3.00;;;17.50;56.90;;;;;;5065963;28;20453;-68
2023/06/06 00:39:54;;;;;;;3.95;3.30;;;17.50;57.30;;;;;;5055490;28;20431;-67
2023/06/06 00:42:21;;;;;;;5.53;3.22;;;17.50;57.10;;;;;;5066851;28;20424;-69
2023/06/06 00:44:48;;;;;;;4.10;3.23;;;17.40;57.00;;;;;;5053523;28;20755;-69
2023/06/06 00:47:16;;;;;;;3.67;3.38;;;17.40;56.60;;;;;;5056483;28;20421;-69
2023/06/06 00:49:45;;;;;;;4.22;2.95;;;17.40;56.90;;;;;;5063297;28;20634;-69
2023/06/06 00:52:12;;;;;;;6.35;3.08;;;17.40;57.20;;;;;;5060485;28;20543;-69
2023/06/06 00:54:40;;;;;;;4.13;3.05;;;17.30;57.10;;;;;;5061292;28;20470;-69
2023/06/06 00:57:09;;;;;;;3.58;3.00;;;17.30;57.80;;;;;;5056123;28;20425;-69
2023/06/06 00:59:38;;;;;;;3.58;3.22;;;17.30;58.00;;;;;;5064839;28;20502;-68
2023/06/06 01:02:09;;;;;;;4.15;3.20;;;17.20;58.30;;;;;;5063480;28;20480;-69
2023/06/06 01:04:40;;;;;;;3.75;3.20;;;17.20;58.30;;;;;;5061305;28;20451;-69
2023/06/06 01:07:07;;;;;;;3.43;3.10;;;17.20;58.50;;;;;;5055397;28;20615;-69
2023/06/06 01:09:35;;;;;;;5.22;3.30;;;17.10;58.90;;;;;;5054494;28;20447;-69
2023/06/06 01:12:09;;;;;;;3.80;3.10;;;17.10;58.60;;;;;;5055069;28;20467;-68
2023/06/06 01:14:42;;;;;;;5.55;3.50;;;17.10;59.10;;;;;;5056237;28;20450;-69
2023/06/06 01:17:09;;;;;;;3.80;3.00;;;17.00;59.20;;;;;;5063213;28;20423;-69
2023/06/06 01:19:38;;;;;;;3.70;3.30;;;17.00;59.20;;;;;;5059841;28;20420;-69
2023/06/06 01:22:07;;;;;;;3.75;3.30;;;16.90;59.50;;;;;;5063220;28;20424;-69
2023/06/06 01:24:36;;;;;;;3.30;3.00;;;16.90;60.70;;;;;;5066287;28;20423;-72
2023/06/06 01:27:03;;;;;;;3.47;3.17;;;16.90;60.50;;;;;;5052721;28;20446;-69
2023/06/06 01:29:30;;;;;;;4.10;3.00;;;16.80;60.40;;;;;;5056050;28;20485;-69
2023/06/06 01:32:06;;;;;;;5.07;3.80;;;16.80;61.00;;;;;;5063983;28;20427;-69
2023/06/06 01:34:39;;;;;;;4.38;3.40;;;16.80;61.80;;;;;;5059562;28;20463;-69
2023/06/06 01:37:12;;;;;;;4.20;3.80;;;16.80;62.50;;;;;;5066031;28;20437;-69
2023/06/06 01:39:42;;;;;;;4.10;3.40;;;16.70;62.50;;;;;;5049888;28;20580;-69
2023/06/06 01:42:11;;;;;;;4.20;3.20;;;16.70;62.20;;;;;;5061835;28;20713;-68
2023/06/06 01:44:40;;;;;;;4.88;3.70;;;16.70;63.00;;;;;;5051431;28;20867;-69
2023/06/06 01:47:08;;;;;;;4.25;3.70;;;16.60;63.20;;;;;;5058177;28;20421;-68
2023/06/06 01:49:34;;;;;;;4.60;3.50;;;16.60;64.30;;;;;;5059386;28;20468;-67
2023/06/06 01:52:01;;;;;;;4.95;4.03;;;16.50;64.70;;;;;;5053573;28;20435;-69
2023/06/06 01:54:34;;;;;;;4.70;3.85;;;16.50;65.20;;;;;;5063374;28;20434;-68
2023/06/06 01:57:01;;;;;;;3.58;3.10;;;16.50;66.10;;;;;;5065328;28;20966;-69
2023/06/06 01:59:28;;;;;;;4.22;3.15;;;16.50;66.10;;;;;;5052245;28;20530;-69
2023/06/06 02:01:54;;;;;;;4.40;3.50;;;16.50;66.30;;;;;;5056045;28;20425;-67
2023/06/06 02:04:21;;;;;;;5.30;3.80;;;16.50;66.50;;;;;;5055531;28;20545;-68
2023/06/06 02:06:48;;;;;;;5.53;4.05;;;16.50;66.90;;;;;;5057648;28;20411;-68
2023/06/06 02:09:14;;;;;;;4.10;3.67;;;16.50;67.30;;;;;;5059945;28;20828;-69
2023/06/06 02:11:42;;;;;;;4.38;3.72;;;16.40;68.00;;;;;;5055907;28;20423;-68
2023/06/06 02:14:09;;;;;;;4.85;3.80;;;16.40;68.40;;;;;;5064760;28;20430;-69
2023/06/06 02:16:36;;;;;;;3.90;3.43;;;16.40;68.60;;;;;;5064957;28;20439;-69
2023/06/06 02:19:03;;;;;;;5.60;4.70;;;16.40;69.00;;;;;;5060275;28;20461;-69
2023/06/06 02:21:29;;;;;;;5.25;3.63;;;16.40;69.70;;;;;;5065275;28;20460;-69
2023/06/06 02:23:56;;;;;;;5.25;3.70;;;16.40;69.80;;;;;;5063644;28;20812;-69
2023/06/06 02:26:23;;;;;;;4.72;3.90;;;16.30;70.00;;;;;;5063285;28;20419;-69
2023/06/06 02:28:51;;;;;;;4.75;3.90;;;16.30;70.50;;;;;;5051709;28;20421;-68
2023/06/06 02:31:21;;;;;;;5.32;4.13;;;16.30;70.80;;;;;;5064969;28;20422;-68
2023/06/06 02:33:48;;;;;;;5.00;3.90;;;16.20;71.30;;;;;;5050902;28;20427;-68
2023/06/06 02:36:17;;;;;;;5.70;4.40;;;16.20;72.50;;;;;;5060578;28;20423;-68
2023/06/06 02:38:44;;;;;;;4.70;4.20;;;16.10;72.30;;;;;;5060899;28;20431;-67
2023/06/06 02:41:10;;;;;;;5.32;3.95;;;16.10;72.70;;;;;;5061122;28;20523;-69
2023/06/06 02:43:39;;;;;;;4.45;4.05;;;16.10;72.70;;;;;;5054402;28;20899;-69
2023/06/06 02:46:07;;;;;;;6.10;4.10;;;16.10;73.00;;;;;;5058018;28;20412;-68
2023/06/06 02:48:34;;;;;;;4.90;4.40;;;16.00;73.30;;;;;;5064509;28;20448;-69
2023/06/06 02:51:01;;;;;;;5.00;4.35;;;16.00;73.90;;;;;;5062170;28;20815;-69
2023/06/06 02:53:29;;;;;;;5.00;4.20;;;15.90;74.50;;;;;;5047320;28;20439;-69
2023/06/06 02:55:56;;;;;;;5.10;4.13;;;15.90;75.70;;;;;;5056064;28;20437;-67
2023/06/06 02:58:27;;;;;;;5.70;5.10;;;15.80;75.80;;;;;;5051601;28;20439;-68
2023/06/06 03:00:55;;;;;;;5.55;4.70;;;15.80;76.80;;;;;;5050585;28;20650;-69
2023/06/06 03:03:23;;;;;;;5.00;4.50;;;15.80;77.20;;;;;;5062466;28;20916;-68
2023/06/06 03:05:51;;;;;;;5.85;5.28;;;15.80;77.70;;;;;;5051687;28;20414;-69
2023/06/06 03:08:18;;;;;;;7.43;5.10;;;15.80;78.00;;;;;;5063532;28;20412;-69
2023/06/06 03:10:45;;;;;;;5.45;4.95;;;15.80;78.30;;;;;;5058520;28;20417;-69
2023/06/06 03:13:12;;;;;;;5.40;4.90;;;15.80;78.90;;;;;;5055243;28;20432;-69
2023/06/06 03:15:40;;;;;;;5.90;4.60;;;15.80;78.90;;;;;;5057339;28;20432;-69
2023/06/06 03:18:09;;;;;;;5.57;4.80;;;15.70;79.20;;;;;;5054908;28;20467;-69
2023/06/06 03:20:38;;;;;;;5.20;4.70;;;15.70;78.80;;;;;;5060089;28;20504;-69
2023/06/06 03:23:05;;;;;;;5.65;5.15;;;15.60;79.70;;;;;;5055476;28;20866;-69
2023/06/06 03:25:33;;;;;;;5.63;5.07;;;15.60;79.80;;;;;;5056229;28;20440;-69
2023/06/06 03:28:00;;;;;;;6.83;5.40;;;15.60;80.60;;;;;;5055203;28;20420;-69
2023/06/06 03:30:26;;;;;;;5.77;5.20;;;15.60;81.10;;;;;;5057925;28;20424;-68
2023/06/06 03:32:55;;;;;;;6.03;5.30;;;15.60;81.20;;;;;;5053714;28;20781;-68
2023/06/06 03:35:22;;;;;;;7.37;5.53;;;15.60;81.60;;;;;;5062928;28;20456;-72
2023/06/06 03:37:55;;;;;;;6.25;5.65;;;15.60;81.70;;;;;;5055536;28;20915;-72
2023/06/06 03:40:22;;;;;;;6.40;5.40;;;15.50;82.10;;;;;;5059478;28;20469;-72
2023/06/06 03:42:49;;;;;;;6.32;5.55;;;15.50;82.50;;;;;;5057003;28;20460;-71
2023/06/06 03:45:15;;;;;;;6.60;5.40;;;15.50;82.80;;;;;;5057085;28;20415;-72
2023/06/06 03:47:42;;;;;;;5.97;5.40;;;15.50;83.10;;;;;;5057673;28;20633;-71
2023/06/06 03:50:10;;;;;;;6.55;5.40;;;15.50;83.20;;;;;;5063421;28;20471;-73
2023/06/06 03:52:36;;;;;;;6.40;5.70;;;15.50;82.90;;;;;;5061492;28;20502;-71
2023/06/06 03:55:05;;;;;;;6.40;5.80;;;15.40;83.00;;;;;;5062824;28;20432;-72
2023/06/06 03:57:32;;;;;;;6.18;5.57;;;15.40;84.00;;;;;;5053247;28;20906;-72
2023/06/06 04:00:00;;;;;;;7.03;5.43;;;15.40;84.30;;;;;;5063306;28;20423;-71
2023/06/06 04:02:27;;;;;;;6.65;5.93;;;15.40;84.90;;;;;;5064158;28;20542;-71
2023/06/06 04:04:54;;;;;;;7.32;5.90;;;15.40;84.80;;;;;;5064464;28;20438;-71
2023/06/06 04:07:21;;;;;;;6.37;5.77;;;15.40;84.80;;;;;;5066023;28;20507;-71
2023/06/06 04:09:48;;;;;;;6.75;6.05;;;15.40;84.90;;;;;;5057215;28;20444;-71
2023/06/06 04:12:16;;;;;;;6.20;5.65;;;15.50;85.30;;;;;;5074625;22;20435;-75
2023/06/06 04:14:43;;;;;;;6.83;6.13;;;15.40;85.60;;;;;;5068102;28;20427;-74
2023/06/06 04:17:09;;;;;;;6.70;6.03;;;15.50;85.70;;;;;;5071168;28;20804;-76
2023/06/06 04:19:37;;;;;;;6.13;5.10;;;15.50;86.10;;;;;;5072535;28;20885;-65
2023/06/06 04:22:05;;;;;;;7.00;6.30;;;15.50;85.50;;;;;;5064213;28;20486;-64
2023/06/06 04:24:32;;;;;;;7.88;5.97;;;15.70;85.00;;;;;;5067195;28;20928;-65
2023/06/06 04:27:03;;;;;;;6.50;5.90;;;15.70;85.10;;;;;;5069554;28;20430;-64
2023/06/06 04:29:33;;;;;;;6.55;5.95;;;15.80;85.00;;;;;;5071548;28;20454;-64
2023/06/06 04:32:00;;;;;;;6.40;5.80;;;15.90;84.10;;;;;;5071232;28;20426;-66
2023/06/06 04:34:30;;;;;;;6.93;6.33;;;16.00;84.30;;;;;;5077469;28;20877;-65
2023/06/06 04:37:03;;;;;;;7.05;6.30;;;16.00;84.30;;;;;;5058524;28;20425;-64
2023/06/06 04:39:32;;;;;;;8.70;6.13;;;15.90;84.70;;;;;;5061535;28;20429;-64
2023/06/06 04:41:59;;;;;;;8.25;6.90;;;15.90;85.30;;;;;;5058979;28;20913;-63
2023/06/06 04:44:26;;;;;;;7.32;6.63;;;15.90;85.40;;;;;;5071686;28;20940;-64
2023/06/06 04:47:00;;;;;;;8.98;6.88;;;15.80;85.70;;;;;;5066429;28;20882;-65
2023/06/06 04:49:27;;;;;;;7.03;6.32;;;15.90;85.80;;;;;;5070622;28;20415;-64
2023/06/06 04:51:53;;;;;;;7.30;6.60;;;15.80;86.20;;;;;;5073653;28;20436;-63
2023/06/06 04:54:23;;;;;;;7.30;6.60;;;15.80;86.30;;;;;;5071034;28;20445;-62
2023/06/06 04:56:51;;;;;;;8.25;6.80;;;15.80;86.40;;;;;;5071272;28;20432;-64
2023/06/06 04:59:21;;;;;;;8.35;6.90;;;15.80;86.70;;;;;;5069760;28;20416;-65
2023/06/06 05:01:48;;;;;;;7.55;6.85;;;15.90;87.00;;;;;;5072856;28;20667;-65
2023/06/06 05:04:17;;;;;;;7.75;6.95;;;15.90;86.70;;;;;;5066337;28;20413;-64
2023/06/06 05:06:44;;;;;;;7.53;6.82;;;15.90;86.60;;;;;;5062596;28;20427;-63
2023/06/06 05:09:11;;;;;;;8.30;7.35;;;15.90;86.80;;;;;;5074783;28;20449;-64
2023/06/06 05:11:37;;;;;;;8.55;7.75;;;16.00;86.80;;;;;;5078172;28;20427;-65
2023/06/06 05:14:04;;;;;;;9.07;8.18;;;16.00;86.80;;;;;;5074508;28;20440;-64
2023/06/06 05:16:31;;;;;;;8.95;8.15;;;16.00;86.80;;;;;;5068121;28;20423;-65
2023/06/06 05:18:58;;;;;;;8.50;7.50;;;16.00;86.70;;;;;;5057474;28;20774;-73
2023/06/06 05:21:26;;;;;;;8.43;7.43;;;16.00;87.20;;;;;;5078971;28;21004;-73
2023/06/06 05:23:53;;;;;;;8.25;7.47;;;16.10;87.30;;;;;;5065448;28;20420;-74
2023/06/06 05:26:20;;;;;;;8.18;7.38;;;16.10;87.00;;;;;;5069285;28;20549;-73
2023/06/06 05:28:46;;;;;;;8.80;8.00;;;16.00;87.00;;;;;;5066659;28;20407;-72
2023/06/06 05:31:16;;;;;;;9.80;7.93;;;16.10;87.50;;;;;;5088702;28;20505;-72
2023/06/06 05:33:43;;;;;;;9.05;8.15;;;16.10;87.10;;;;;;5094969;28;20412;-73
2023/06/06 05:36:11;;;;;;;8.90;7.90;;;16.10;87.30;;;;;;5090593;28;20423;-74
2023/06/06 05:38:39;;;;;;;8.60;7.80;;;16.20;86.90;;;;;;5071847;28;20431;-74
2023/06/06 05:41:06;;;;;;;11.07;8.25;;;16.20;86.60;;;;;;5068940;28;20786;-75
2023/06/06 05:43:33;;;;;;;9.98;8.45;;;16.20;86.40;;;;;;5068693;28;20805;-73
2023/06/06 05:46:02;;;;;;;9.32;8.10;;;16.20;86.10;;;;;;5068169;28;20507;-74
2023/06/06 05:48:29;;;;;;;9.40;8.40;;;16.20;86.70;;;;;;5068115;28;20416;-74
2023/06/06 05:50:56;;;;;;;8.73;7.80;;;16.20;87.40;;;;;;5067562;28;20444;-74
2023/06/06 05:53:23;;;;;;;9.40;8.30;;;16.30;87.10;;;;;;5068539;28;20419;-75
2023/06/06 05:55:51;;;;;;;7.85;7.15;;;16.30;87.20;;;;;;5072468;28;20458;-74
2023/06/06 05:58:18;;;;;;;9.00;7.43;;;16.40;86.70;;;;;;5069456;28;21042;-74
2023/06/06 06:00:45;;;;;;;8.27;7.20;;;16.50;85.80;;;;;;5086033;28;20412;-74
2023/06/06 06:03:14;;;;;;;7.70;6.90;;;16.60;85.00;;;;;;5069972;28;20515;-74
2023/06/06 06:05:41;;;;;;;6.95;6.25;;;16.60;84.70;;;;;;5070203;28;20426;-73
2023/06/06 06:08:08;;;;;;;7.05;6.35;;;16.70;83.70;;;;;;5070770;28;20415;-76
2023/06/06 06:10:36;;;;;;;6.80;6.20;;;16.80;82.60;;;;;;5070453;28;20894;-74
2023/06/06 06:13:05;;;;;;;7.63;6.43;;;16.80;81.20;;;;;;5072075;28;20446;-75
2023/06/06 06:15:33;;;;;;;7.68;6.90;;;16.90;81.20;;;;;;5072915;28;20459;-75
2023/06/06 06:18:00;;;;;;;7.10;6.40;;;16.90;80.20;;;;;;5070016;28;20434;-74
2023/06/06 06:20:27;;;;;;;7.68;6.85;;;17.00;80.40;;;;;;5068711;28;20440;-75
2023/06/06 06:22:54;;;;;;;8.48;7.18;;;17.00;79.40;;;;;;5070354;28;20420;-74
2023/06/06 06:25:20;;;;;;;8.43;7.53;;;17.10;79.80;;;;;;5070759;28;20416;-74
2023/06/06 06:27:48;;;;;;;10.45;8.15;;;17.10;79.60;;;;;;5068654;28;20436;-74
2023/06/06 06:30:16;;;;;;;9.60;8.40;;;17.20;80.00;;;;;;5069767;28;20420;-73
2023/06/06 06:32:45;;;;;;;10.02;8.98;;;17.30;80.70;;;;;;5069356;28;20473;-73
2023/06/06 06:35:12;;;;;;;8.45;7.55;;;17.30;80.00;;;;;;5069954;28;20439;-74
2023/06/06 06:37:39;;;;;;;9.38;8.10;;;17.40;80.50;;;;;;5077739;28;20427;-74
2023/06/06 06:40:09;;;;;;;9.57;7.80;;;17.50;80.20;;;;;;5069839;28;20427;-73
2023/06/06 06:42:39;;;;;;;8.80;7.90;;;17.60;79.60;;;;;;5069642;28;20781;-75
2023/06/06 06:45:07;;;;;;;8.63;7.72;;;17.70;79.50;;;;;;5069973;28;20419;-74
2023/06/06 06:47:35;;;;;;;8.80;8.00;;;17.80;79.10;;;;;;5070360;28;20407;-72
2023/06/06 06:50:04;;;;;;;8.80;8.10;;;18.00;78.90;;;;;;5069809;28;20436;-73
2023/06/06 06:52:33;;;;;;;8.67;7.63;;;18.10;77.80;;;;;;5065263;28;20421;-74
2023/06/06 06:55:01;;;;;;;8.73;7.82;;;18.20;77.00;;;;;;5055994;28;20786;-73
2023/06/06 06:57:29;;;;;;;9.10;8.20;;;18.30;76.00;;;;;;5067608;28;20511;-75
2023/06/06 06:59:56;;;;;;;11.32;8.10;;;18.40;75.00;;;;;;5068522;28;20436;-73
2023/06/06 07:02:26;;;;;;;9.88;8.00;;;18.50;75.00;;;;;;5070174;28;20952;-75
2023/06/06 07:04:57;;;;;;;8.60;7.63;;;18.60;74.70;;;;;;5069177;28;20461;-74
2023/06/06 07:07:24;;;;;;;9.90;8.40;;;18.70;73.70;;;;;;5075819;28;20422;-74
2023/06/06 07:09:51;;;;;;;10.57;8.35;;;18.80;72.10;;;;;;5066578;28;21331;-75
2023/06/06 07:12:19;;;;;;;10.02;8.63;;;18.80;71.90;;;;;;5071521;28;20866;-76
2023/06/06 07:14:46;;;;;;;8.15;7.35;;;18.80;71.50;;;;;;5065937;28;20938;-73
2023/06/06 07:17:15;;;;;;;11.38;7.63;;;18.80;71.70;;;;;;5063329;28;20449;-75
2023/06/06 07:19:43;;;;;;;7.75;6.95;;;18.90;70.80;;;;;;5063487;28;20466;-75
2023/06/06 07:22:11;;;;;;;7.18;6.20;;;19.10;70.60;;;;;;5062129;28;20427;-73
2023/06/06 07:24:38;;;;;;;7.05;6.40;;;19.30;69.10;;;;;;5066209;28;20905;-74
2023/06/06 07:27:06;;;;;;;8.57;7.25;;;19.50;65.80;;;;;;5068831;28;20412;-73
2023/06/06 07:29:32;;;;;;;7.18;6.53;;;19.50;65.60;;;;;;5069831;28;20451;-74
2023/06/06 07:31:59;;;;;;;8.70;6.70;;;19.60;66.50;;;;;;5091306;28;20396;-75
2023/06/06 07:34:26;;;;;;;8.83;7.03;;;19.80;67.10;;;;;;5091812;28;20497;-74
2023/06/06 07:36:53;;;;;;;7.55;6.47;;;20.00;66.00;;;;;;5083173;28;21008;-75
2023/06/06 07:39:21;;;;;;;9.73;6.35;;;20.20;65.00;;;;;;5069090;28;20477;-75
2023/06/06 07:41:48;;;;;;;7.85;6.35;;;20.40;63.90;;;;;;5067030;28;20458;-73
2023/06/06 07:44:16;;;;;;;7.30;5.57;;;20.60;63.10;;;;;;5067734;28;20431;-73
2023/06/06 07:46:42;;;;;;;8.32;6.65;;;20.80;62.60;;;;;;5067591;28;20497;-75
2023/06/06 07:49:09;;;;;;;7.63;6.25;;;20.90;60.50;;;;;;5065734;28;20502;-75
2023/06/06 07:51:36;;;;;;;8.52;5.97;;;21.10;58.80;;;;;;5057513;28;20853;-75
2023/06/06 07:54:03;;;;;;;6.85;5.80;;;21.20;58.50;;;;;;5058195;28;21244;-73
2023/06/06 07:56:36;;;;;;;5.82;5.22;;;21.40;58.10;;;;;;5064617;28;20435;-73
2023/06/06 07:59:03;;;;;;;7.03;6.43;;;21.50;57.00;;;;;;5076215;28;20453;-76
2023/06/06 08:01:31;;;;;;;7.25;5.60;;;21.70;57.20;;;;;;5064962;28;20911;-73
2023/06/06 08:03:59;;;;;;;6.93;6.22;;;21.70;57.10;;;;;;5060180;28;20918;-72
2023/06/06 08:06:27;;;;;;;6.70;5.78;;;21.90;56.70;;;;;;5057055;28;20435;-72
2023/06/06 08:08:54;;;;;;;7.45;5.60;;;22.10;54.90;;;;;;5069994;28;20430;-73
2023/06/06 08:11:21;;;;;;;6.35;5.65;;;22.30;54.30;;;;;;5066319;28;20914;-74
2023/06/06 08:13:49;;;;;;;7.90;5.30;;;22.50;53.60;;;;;;5060822;28;20432;-72
2023/06/06 08:16:16;;;;;;;7.95;5.43;;;22.60;52.60;;;;;;5070300;28;20437;-73
2023/06/06 08:18:43;;;;;;;8.50;5.27;;;22.80;51.90;;;;;;5068435;28;20432;-72
2023/06/06 08:21:09;;;;;;;6.90;5.70;;;22.80;51.80;;;;;;5065667;28;20446;-73
2023/06/06 08:23:36;;;;;;;6.57;4.90;;;22.90;51.00;;;;;;5059091;28;20421;-74
2023/06/06 08:26:04;;;;;;;7.18;5.60;;;23.10;50.40;;;;;;5074796;28;20433;-72
2023/06/06 08:28:30;;;;;;;5.20;4.70;;;23.20;49.80;;;;;;5071795;28;20419;-74
2023/06/06 08:31:01;;;;;;;5.43;4.85;;;23.30;49.10;;;;;;5066009;28;20433;-74
2023/06/06 08:33:28;;;;;;;5.93;5.28;;;23.20;48.20;;;;;;5079035;28;20411;-71
2023/06/06 08:35:54;;;;;;;6.05;4.50;;;23.30;48.50;;;;;;5067836;28;20431;-74
2023/06/06 08:38:21;;;;;;;6.07;5.00;;;23.30;48.60;;;;;;5068991;28;20427;-72
2023/06/06 08:40:50;;;;;;;6.70;5.05;;;23.30;48.30;;;;;;5063904;28;20439;-72
2023/06/06 08:43:18;;;;;;;4.40;4.00;;;23.40;47.80;;;;;;5064671;28;20538;-72
2023/06/06 08:45:56;;;;;;;5.65;5.05;;;23.50;47.90;;;;;;5066732;28;20545;-71
2023/06/06 08:48:26;;;;;;;7.00;4.40;;;23.50;48.20;;;;;;5075300;28;20502;-70
2023/06/06 08:50:53;;;;;;;5.45;4.95;;;23.60;46.90;;;;;;5068680;28;20429;-71
2023/06/06 08:53:20;;;;;;;7.57;5.20;;;23.80;47.30;;;;;;5072616;28;20418;-69
2023/06/06 08:55:48;;;;;;;5.78;4.60;;;23.90;46.80;;;;;;5076020;28;20448;-71
2023/06/06 08:58:15;;;;;;;9.00;5.15;;;24.00;47.20;;;;;;5060205;28;20426;-69
2023/06/06 09:00:42;;;;;;;5.93;4.85;;;24.10;46.30;;;;;;5070816;28;20442;-70
2023/06/06 09:03:12;;;;;;;6.78;6.18;;;24.10;46.80;;;;;;5068158;28;21074;-69
2023/06/06 09:05:40;;;;;;;5.53;5.03;;;24.10;47.10;;;;;;5064437;28;20464;-69
2023/06/06 09:08:08;;;;;;;5.80;4.90;;;24.00;45.80;;;;;;5071832;28;20416;-69
2023/06/06 09:10:35;;;;;;;6.85;5.30;;;23.90;45.80;;;;;;5064603;28;20568;-71
2023/06/06 09:13:01;;;;;;;5.75;5.15;;;24.00;46.00;;;;;;5066240;28;20429;-71
2023/06/06 09:15:29;;;;;;;6.40;5.10;;;24.10;45.80;;;;;;5063416;28;21422;-71
2023/06/06 09:17:56;;;;;;;6.78;5.57;;;24.00;45.80;;;;;;5074716;28;20433;-69
2023/06/06 09:20:24;;;;;;;5.50;5.00;;;24.10;46.60;;;;;;5074283;28;20425;-70
2023/06/06 09:22:54;;;;;;;5.43;4.45;;;24.20;45.90;;;;;;5075696;28;20417;-70
2023/06/06 09:25:21;;;;;;;5.93;4.60;;;24.20;45.10;;;;;;5071842;28;20435;-70
2023/06/06 09:27:52;;;;;;;5.78;4.60;;;24.20;44.50;;;;;;5072317;28;20423;-69
2023/06/06 09:30:27;;;;;;;5.30;4.80;;;24.20;44.30;;;;;;5089766;28;20407;-72
2023/06/06 09:32:56;;;;;;;5.53;4.70;;;24.40;44.10;;;;;;5085827;28;20447;-69
2023/06/06 09:35:23;;;;;;;5.10;4.50;;;24.60;43.50;;;;;;5074194;28;20600;-68
2023/06/06 09:37:52;;;;;;;4.80;4.30;;;24.60;42.70;;;;;;5074574;28;20424;-69
2023/06/06 09:40:20;;;;;;;24.90;7.13;;;24.60;42.50;;;;;;5057232;28;20437;-71
2023/06/06 09:42:48;;;;;;;4.95;3.72;;;24.80;42.10;;;;;;5064952;28;20482;-69
2023/06/06 09:45:16;;;;;;;8.15;4.20;;;24.90;41.50;;;;;;5064136;28;20944;-70
2023/06/06 09:47:43;;;;;;;5.25;3.78;;;24.80;40.80;;;;;;5063047;28;20437;-70
2023/06/06 09:50:12;;;;;;;5.68;3.60;;;25.00;40.80;;;;;;5063420;28;20432;-69
2023/06/06 09:52:39;;;;;;;6.13;3.65;;;25.10;41.60;;;;;;5069524;28;20424;-71
2023/06/06 09:55:09;;;;;;;4.80;3.80;;;25.30;40.30;;;;;;5065853;28;20936;-70
2023/06/06 09:57:37;;;;;;;5.05;3.70;;;25.30;39.50;;;;;;5062319;28;20413;-70
2023/06/06 10:00:10;;;;;;;4.63;3.50;;;25.20;38.90;;;;;;5065144;28;20431;-70
2023/06/06 10:02:42;;;;;;;4.95;3.20;;;25.20;38.90;;;;;;5074151;28;20805;-72
2023/06/06 10:05:11;;;;;;;6.67;3.30;;;25.50;39.00;;;;;;5063508;28;20427;-70
2023/06/06 10:07:44;;;;;;;3.30;3.00;;;25.60;38.70;;;;;;5065959;28;21002;-69
2023/06/06 10:10:14;;;;;;;3.60;3.30;;;25.70;38.20;;;;;;5070983;28;20845;-78
2023/06/06 10:12:43;;;;;;;4.50;3.27;;;26.00;37.90;;;;;;5089955;22;20435;-66
2023/06/06 10:15:11;;;;;;;6.40;3.15;;;26.30;37.30;;;;;;5064273;28;20458;-64
2023/06/06 10:17:40;;;;;;;4.90;3.70;;;26.60;36.60;;;;;;5067062;28;20520;-66
2023/06/06 10:20:09;;;;;;;3.53;3.00;;;26.80;35.40;;;;;;5060547;28;20468;-66
2023/06/06 10:22:37;;;;;;;3.42;2.95;;;27.00;34.40;;;;;;5066213;28;20481;-66
2023/06/06 10:25:04;;;;;;;4.50;3.10;;;27.20;35.10;;;;;;5061804;28;20435;-65
2023/06/06 10:27:41;;;;;;;3.58;3.00;;;27.30;34.40;;;;;;5068498;28;20625;-64
2023/06/06 10:30:16;;;;;;;3.83;2.80;;;27.40;34.40;;;;;;5065456;28;20494;-66
2023/06/06 10:32:51;;;;;;;3.22;2.83;;;27.40;32.90;;;;;;5060325;28;20933;-66
2023/06/06 10:35:19;;;;;;;4.15;3.03;;;27.50;33.80;;;;;;5064988;28;20443;-66
2023/06/06 10:38:02;;;;;;;3.10;2.80;;;27.60;34.10;;;;;;5067527;28;20459;-66
2023/06/06 10:40:41;;;;;;;4.05;2.90;;;27.70;33.80;;;;;;5066295;28;20476;-65
2023/06/06 10:43:09;;;;;;;4.28;3.15;;;27.80;34.20;;;;;;5067847;28;21011;-65
2023/06/06 10:45:42;;;;;;;5.20;3.20;;;27.90;34.00;;;;;;5064926;28;20908;-66
2023/06/06 10:48:09;;;;;;;3.30;2.95;;;28.10;34.20;;;;;;5063960;28;20431;-66
2023/06/06 10:50:36;;;;;;;4.87;3.27;;;28.20;34.90;;;;;;5055152;28;20421;-64
2023/06/06 10:53:06;;;;;;;5.05;3.30;;;28.20;34.30;;;;;;5062543;28;20469;-67
2023/06/06 10:55:42;;;;;;;4.20;3.28;;;28.30;34.30;;;;;;5067528;28;20514;-65
2023/06/06 10:58:17;;;;;;;3.80;3.50;;;28.50;34.50;;;;;;5067579;28;20427;-65
2023/06/06 11:00:47;;;;;;;5.55;3.50;;;28.60;33.80;;;;;;5065762;28;20543;-65
2023/06/06 11:03:16;;;;;;;4.40;3.15;;;28.60;34.00;;;;;;5069042;28;20431;-65
2023/06/06 11:06:04;;;;;;;7.10;6.40;;;28.70;34.40;;;;;;5065516;28;20494;-67
2023/06/06 11:08:35;;;;;;;17.98;16.58;;;28.90;33.80;;;;;;5066088;28;20431;-68
2023/06/06 11:11:17;;;;;;;100.77;91.87;;;28.90;33.30;;;;;;5065911;28;20428;-68
2023/06/06 11:13:56;;;;;;;45.15;41.30;;;28.90;34.30;;;;;;5067859;28;20426;-67
2023/06/06 11:16:30;;;;;;;38.42;34.85;;;29.00;34.00;;;;;;5058428;28;20436;-67
2023/06/06 11:19:04;;;;;;;36.55;33.13;;;29.10;33.70;;;;;;5069343;28;20423;-69
2023/06/06 11:21:32;;;;;;;44.03;39.88;;;29.10;33.40;;;;;;5050599;28;20421;-70
2023/06/06 11:23:59;;;;;;;52.58;47.58;;;29.20;33.20;;;;;;5065852;28;20423;-67
2023/06/06 11:26:26;;;;;;;53.10;48.05;;;29.20;33.30;;;;;;5072541;28;20429;-68
2023/06/06 11:28:55;;;;;;;32.90;29.80;;;29.10;33.60;;;;;;5066791;28;20755;-69
2023/06/06 11:31:24;;;;;;;17.92;16.17;;;29.00;33.50;;;;;;5074326;28;20430;-69
2023/06/06 11:33:51;;;;;;;12.95;11.70;;;29.10;33.10;;;;;;5072351;28;20925;-68
2023/06/06 11:36:18;;;;;;;11.70;10.60;;;29.20;33.20;;;;;;5063602;28;20952;-68
2023/06/06 11:38:45;;;;;;;11.70;10.55;;;29.00;33.10;;;;;;5054107;28;20427;-69
2023/06/06 11:41:12;;;;;;;9.80;8.80;;;29.10;33.20;;;;;;5072987;28;20433;-67
2023/06/06 11:43:48;;;;;;;8.93;8.02;;;29.30;31.90;;;;;;5059950;28;20413;-69
2023/06/06 11:46:17;;;;;;;7.65;6.85;;;29.40;31.60;;;;;;5068290;28;20975;-68
2023/06/06 11:48:44;;;;;;;7.00;6.40;;;29.70;31.50;;;;;;5065353;28;21011;-69
2023/06/06 11:51:11;;;;;;;7.32;6.65;;;29.70;32.20;;;;;;5075977;28;20434;-68
2023/06/06 11:53:38;;;;;;;9.15;7.03;;;29.40;32.00;;;;;;5066929;28;20475;-68
2023/06/06 11:56:06;;;;;;;14.88;13.50;;;29.40;32.00;;;;;;5069674;28;20437;-67
2023/06/06 11:58:34;;;;;;;8.63;7.82;;;29.10;32.50;;;;;;5057930;28;20423;-67
2023/06/06 12:01:04;;;;;;;8.40;7.70;;;28.70;32.50;;;;;;5069387;28;20438;-68
2023/06/06 12:03:34;;;;;;;7.60;6.50;;;28.40;32.90;;;;;;5061632;28;20953;-68
2023/06/06 12:06:02;;;;;;;5.82;5.10;;;28.10;32.90;;;;;;5052766;28;20478;-69
2023/06/06 12:08:29;;;;;;;5.95;5.45;;;27.90;33.20;;;;;;5072729;28;20421;-69
2023/06/06 12:10:56;;;;;;;4.57;4.18;;;27.70;34.20;;;;;;5066994;28;20894;-69
2023/06/06 12:13:32;;;;;;;4.50;4.03;;;27.40;34.20;;;;;;5066834;28;20450;-69
2023/06/06 12:15:59;;;;;;;5.38;3.85;;;27.20;34.00;;;;;;5055223;28;20437;-69
2023/06/06 12:18:26;;;;;;;5.10;4.18;;;27.10;34.50;;;;;;5060146;28;20543;-70
2023/06/06 12:20:55;;;;;;;4.30;3.90;;;27.00;34.60;;;;;;5066074;28;20415;-69
2023/06/06 12:23:28;;;;;;;3.90;3.50;;;26.90;34.60;;;;;;5064636;28;20420;-69
2023/06/06 12:25:57;;;;;;;4.43;3.50;;;26.80;34.90;;;;;;5054422;28;20425;-69
2023/06/06 12:28:24;;;;;;;4.03;3.60;;;26.70;35.10;;;;;;5068764;28;20638;-69
2023/06/06 12:30:52;;;;;;;5.00;3.50;;;26.70;35.60;;;;;;5068891;28;20874;-71
2023/06/06 12:33:20;;;;;;;5.13;3.40;;;26.60;34.60;;;;;;5062503;28;20458;-70
2023/06/06 12:35:48;;;;;;;9.07;3.80;;;26.60;34.50;;;;;;5068879;28;20475;-70
2023/06/06 12:38:23;;;;;;;3.65;3.25;;;26.50;34.60;;;;;;5064163;28;20474;-71
2023/06/06 12:40:56;;;;;;;4.10;3.10;;;26.40;34.50;;;;;;5061556;28;20425;-69
2023/06/06 12:43:23;;;;;;;6.72;3.30;;;26.40;34.80;;;;;;5066930;28;20454;-69
2023/06/06 12:45:50;;;;;;;5.13;3.33;;;26.30;34.30;;;;;;5068612;28;20755;-70
2023/06/06 12:48:20;;;;;;;3.78;3.00;;;26.30;34.10;;;;;;5072456;28;20502;-70
2023/06/06 12:50:47;;;;;;;3.90;2.97;;;26.30;34.60;;;;;;5071256;28;20416;-69